Time;durP1;ratioP1;P1;durP2;ratioP2;P2;SDS_P1;SDS_P2;PMS_P1;PMS_P2;Temp;Humidity;BMP_temperature;BMP_pressure;BME280_temperature;BME280_humidity;BME280_pressure;Samples;Min_cycle;Max_cycle;Signal;HPM_P1;HPM_P2
2023/10/11 00:02:56;;;;;;;5.63;2.50;;;18.00;91.90;;;;;;4977106;28;20031;-85
2023/10/11 00:05:28;;;;;;;5.22;2.50;;;18.00;91.90;;;;;;4959605;28;20134;-85
2023/10/11 00:07:57;;;;;;;5.53;2.60;;;18.00;91.90;;;;;;4959410;28;20023;-85
2023/10/11 00:10:23;;;;;;;4.70;2.42;;;18.00;92.00;;;;;;4959468;28;20031;-85
2023/10/11 00:12:50;;;;;;;5.10;2.40;;;17.90;92.00;;;;;;4959223;28;20019;-85
2023/10/11 00:15:16;;;;;;;5.15;2.72;;;18.00;92.10;;;;;;4959489;28;20026;-85
2023/10/11 00:17:46;;;;;;;5.30;2.40;;;17.90;92.20;;;;;;4958936;28;20034;-85
2023/10/11 00:20:28;;;;;;;5.32;2.50;;;17.90;92.20;;;;;;4959511;28;20036;-85
2023/10/11 00:22:54;;;;;;;5.30;2.42;;;17.90;92.20;;;;;;4959235;28;20026;-85
2023/10/11 00:25:27;;;;;;;5.10;2.40;;;17.90;92.20;;;;;;4959100;28;20521;-85
2023/10/11 00:27:53;;;;;;;4.55;2.35;;;17.90;92.20;;;;;;4959194;28;20405;-85
2023/10/11 00:30:21;;;;;;;5.38;2.60;;;17.90;92.50;;;;;;4958894;28;20026;-85
2023/10/11 00:32:46;;;;;;;4.38;2.30;;;17.90;92.20;;;;;;4958690;28;20026;-85
2023/10/11 00:35:18;;;;;;;5.68;2.70;;;17.90;92.30;;;;;;4959350;28;20038;-85
2023/10/11 00:37:51;;;;;;;;;;;17.90;92.20;;;;;;4959341;28;20030;-85
2023/10/11 00:40:32;;;;;;;3.90;2.03;;;17.90;92.20;;;;;;4958792;28;19910;-85
2023/10/11 00:42:58;;;;;;;4.20;2.15;;;17.90;92.50;;;;;;4958495;28;20035;-85
2023/10/11 00:45:31;;;;;;;4.95;2.50;;;17.90;92.30;;;;;;4958742;28;20062;-85
2023/10/11 00:47:59;;;;;;;4.68;2.58;;;17.90;92.30;;;;;;4976427;28;20030;-85
2023/10/11 00:50:26;;;;;;;5.38;2.70;;;17.90;92.20;;;;;;4958692;28;20027;-85
2023/10/11 00:52:52;;;;;;;6.53;3.05;;;17.90;92.20;;;;;;4958469;28;20027;-85
2023/10/11 00:55:20;;;;;;;5.00;2.33;;;17.90;92.20;;;;;;4958817;28;20109;-85
2023/10/11 00:57:47;;;;;;;4.50;2.40;;;18.00;92.10;;;;;;4958608;28;20113;-85
2023/10/11 01:00:21;;;;;;;5.10;2.45;;;18.00;92.20;;;;;;4958650;28;20456;-85
2023/10/11 01:02:48;;;;;;;6.80;2.38;;;18.00;92.10;;;;;;4958327;28;20433;-85
2023/10/11 01:05:19;;;;;;;5.05;2.50;;;18.00;92.10;;;;;;4957997;28;20481;-85
2023/10/11 01:07:45;;;;;;;6.13;2.55;;;17.90;92.00;;;;;;4958129;28;20074;-85
2023/10/11 01:10:11;;;;;;;5.65;2.47;;;18.00;92.10;;;;;;4958154;28;20058;-85
2023/10/11 01:12:40;;;;;;;4.65;2.40;;;17.90;92.10;;;;;;4957669;28;20027;-85
2023/10/11 01:15:11;;;;;;;5.03;2.40;;;18.00;92.20;;;;;;4975582;28;20049;-85
2023/10/11 01:17:38;;;;;;;4.03;2.25;;;17.90;92.20;;;;;;4957888;28;20039;-85
2023/10/11 01:20:14;;;;;;;4.90;2.30;;;17.90;92.20;;;;;;4957799;28;20031;-85
2023/10/11 01:22:43;;;;;;;4.70;2.25;;;17.90;92.30;;;;;;4974958;28;20070;-85
2023/10/11 01:25:18;;;;;;;4.75;2.42;;;17.90;92.30;;;;;;4957796;28;20029;-85
2023/10/11 01:27:44;;;;;;;5.00;2.45;;;17.90;92.30;;;;;;4957111;28;20508;-85
2023/10/11 01:30:11;;;;;;;5.43;2.55;;;17.90;92.30;;;;;;4975081;28;20019;-84
2023/10/11 01:32:41;;;;;;;4.63;2.17;;;17.90;92.30;;;;;;4974781;28;20031;-84
2023/10/11 01:35:08;;;;;;;5.03;2.10;;;17.90;92.30;;;;;;4974804;28;20394;-85
2023/10/11 01:37:41;;;;;;;5.85;2.33;;;17.90;92.30;;;;;;4957513;28;20019;-85
2023/10/11 01:40:11;;;;;;;6.88;2.50;;;17.90;92.30;;;;;;4957390;28;20022;-85
2023/10/11 01:42:36;;;;;;;7.15;2.40;;;17.90;92.30;;;;;;4957085;28;20077;-85
2023/10/11 01:45:07;;;;;;;6.68;2.30;;;17.90;92.40;;;;;;4957344;28;20035;-85
2023/10/11 01:47:33;;;;;;;5.32;2.30;;;17.90;92.30;;;;;;4957389;28;20023;-85
2023/10/11 01:49:59;;;;;;;4.53;2.25;;;17.90;92.30;;;;;;4957288;28;20038;-85
2023/10/11 01:52:26;;;;;;;5.85;2.42;;;17.90;92.30;;;;;;4957060;28;20022;-84
2023/10/11 01:54:55;;;;;;;5.78;2.35;;;17.90;92.30;;;;;;4957192;28;20031;-85
2023/10/11 01:57:21;;;;;;;5.32;2.50;;;17.90;92.20;;;;;;4957083;28;20023;-85
2023/10/11 01:59:51;;;;;;;4.10;2.13;;;18.00;92.20;;;;;;4957191;28;20078;-85
2023/10/11 02:02:16;;;;;;;5.07;2.40;;;17.90;92.10;;;;;;4956928;28;20117;-84
2023/10/11 02:04:42;;;;;;;5.28;2.60;;;18.00;92.10;;;;;;4974364;28;20065;-85
2023/10/11 02:07:07;;;;;;;5.05;2.40;;;18.00;92.00;;;;;;4974325;28;20034;-85
2023/10/11 02:09:33;;;;;;;6.57;2.70;;;18.00;92.10;;;;;;4956929;28;20069;-85
2023/10/11 02:11:59;;;;;;;5.72;2.47;;;18.00;92.10;;;;;;4957018;28;20027;-84
2023/10/11 02:14:28;;;;;;;5.07;2.55;;;17.90;92.10;;;;;;4956628;28;20026;-85
2023/10/11 02:16:53;;;;;;;3.88;2.28;;;17.90;92.20;;;;;;4974083;28;20026;-85
2023/10/11 02:19:19;;;;;;;4.88;2.33;;;17.90;92.30;;;;;;4974087;28;20054;-85
2023/10/11 02:21:45;;;;;;;4.85;2.30;;;17.90;92.30;;;;;;4956925;28;20394;-85
2023/10/11 02:24:16;;;;;;;4.53;2.22;;;17.90;92.30;;;;;;4973827;28;20109;-85
2023/10/11 02:26:49;;;;;;;4.63;2.28;;;17.90;92.30;;;;;;4956554;28;20029;-85
2023/10/11 02:29:20;;;;;;;4.28;2.20;;;17.90;92.40;;;;;;4956774;28;20173;-85
2023/10/11 02:31:52;;;;;;;4.67;2.47;;;17.90;92.30;;;;;;4956635;28;20030;-85
2023/10/11 02:34:19;;;;;;;4.63;2.40;;;17.90;92.40;;;;;;4956449;28;20768;-84
2023/10/11 02:36:55;;;;;;;4.68;2.20;;;17.90;92.40;;;;;;4956639;28;20237;-85
2023/10/11 02:39:21;;;;;;;4.82;2.13;;;17.90;92.40;;;;;;4955809;28;20026;-85
2023/10/11 02:41:55;;;;;;;5.65;2.38;;;17.90;92.40;;;;;;4973937;28;20175;-85
2023/10/11 02:44:22;;;;;;;4.78;2.17;;;17.90;92.40;;;;;;4973580;28;20030;-85
2023/10/11 02:46:49;;;;;;;3.90;1.95;;;17.90;92.40;;;;;;4956517;28;20113;-85
2023/10/11 02:49:20;;;;;;;4.70;2.20;;;17.90;92.40;;;;;;4956282;28;20489;-85
2023/10/11 02:51:55;;;;;;;4.32;2.17;;;17.90;92.40;;;;;;4956531;28;20041;-85
2023/10/11 02:54:33;;;;;;;4.85;2.50;;;17.90;92.30;;;;;;4973483;28;20118;-85
2023/10/11 02:56:59;;;;;;;5.50;2.40;;;17.90;92.30;;;;;;4961918;28;20042;-84
2023/10/11 02:59:25;;;;;;;4.70;2.22;;;17.90;92.30;;;;;;4973825;28;20403;-85
2023/10/11 03:02:01;;;;;;;4.90;2.20;;;17.90;92.20;;;;;;4975561;28;20440;-85
2023/10/11 03:04:33;;;;;;;4.70;2.28;;;17.90;92.20;;;;;;4975389;28;20027;-85
2023/10/11 03:07:00;;;;;;;4.28;2.08;;;18.00;92.20;;;;;;4975554;28;20500;-85
2023/10/11 03:09:27;;;;;;;4.60;2.17;;;17.90;92.10;;;;;;4975533;28;20047;-85
2023/10/11 03:11:56;;;;;;;4.72;2.15;;;17.90;92.10;;;;;;4975420;28;20026;-85
2023/10/11 03:14:21;;;;;;;4.60;2.30;;;17.90;92.20;;;;;;4992657;28;20495;-85
2023/10/11 03:16:55;;;;;;;4.53;2.22;;;17.90;92.30;;;;;;4975583;28;20034;-85
2023/10/11 03:19:22;;;;;;;5.05;2.22;;;17.90;92.30;;;;;;4975477;28;20018;-85
2023/10/11 03:21:53;;;;;;;4.40;2.30;;;17.90;92.30;;;;;;4959283;28;20118;-85
2023/10/11 04:10:39;;;;;;;5.10;2.55;;;17.90;92.10;;;;;;5394315;23;20058;-84
2023/10/11 05:22:35;;;;;;;4.32;2.20;;;17.90;92.30;;;;;;4980739;28;20115;-83
2023/10/11 05:27:51;;;;;;;5.25;2.20;;;17.90;92.30;;;;;;4975281;28;20117;-84
2023/10/11 05:30:26;;;;;;;5.15;2.50;;;17.90;92.30;;;;;;4974816;28;20390;-84
2023/10/11 05:33:15;;;;;;;4.70;2.10;;;17.90;92.30;;;;;;4957250;28;20501;-83
2023/10/11 05:36:13;;;;;;;4.60;2.30;;;17.90;92.30;;;;;;4957630;28;20031;-84
2023/10/11 05:52:33;;;;;;;4.50;2.17;;;17.90;92.40;;;;;;4957630;28;20524;-84
2023/10/11 05:54:59;;;;;;;5.68;2.50;;;17.80;92.30;;;;;;4974678;28;20066;-84
2023/10/11 05:57:27;;;;;;;5.80;2.38;;;17.80;92.30;;;;;;4957369;28;20038;-84
2023/10/11 05:59:53;;;;;;;6.00;2.40;;;17.90;92.10;;;;;;4957251;28;20031;-84
2023/10/11 06:02:18;;;;;;;5.25;2.22;;;17.90;92.20;;;;;;4956925;28;20069;-84
2023/10/11 06:04:45;;;;;;;5.25;2.10;;;17.90;92.20;;;;;;4974298;28;20026;-84
2023/10/11 06:07:16;;;;;;;5.47;2.30;;;17.90;92.20;;;;;;4957117;28;20023;-84
2023/10/11 06:09:46;;;;;;;4.45;2.33;;;17.90;92.10;;;;;;4957057;28;20113;-84
2023/10/11 06:12:23;;;;;;;4.75;2.40;;;17.90;92.00;;;;;;4956918;28;20081;-84
2023/10/11 06:14:50;;;;;;;5.60;2.60;;;17.90;92.00;;;;;;4956983;28;20027;-84
2023/10/11 06:17:21;;;;;;;4.03;2.03;;;17.90;92.00;;;;;;4956972;28;20093;-84
2023/10/11 06:19:53;;;;;;;4.47;2.35;;;17.90;92.10;;;;;;4974105;28;20050;-84
2023/10/11 06:22:21;;;;;;;4.68;2.13;;;17.90;92.20;;;;;;4956781;28;20027;-84
2023/10/11 06:24:47;;;;;;;4.10;1.98;;;17.90;92.20;;;;;;4956697;28;20446;-84
2023/10/11 06:29:56;;;;;;;5.28;2.38;;;17.90;92.20;;;;;;4974179;28;20556;-84
2023/10/11 06:32:23;;;;;;;4.20;2.13;;;17.90;92.30;;;;;;4956639;28;20031;-84
2023/10/11 06:34:52;;;;;;;3.65;1.92;;;17.90;92.20;;;;;;4956405;28;20535;-84
2023/10/11 06:37:19;;;;;;;5.15;2.20;;;17.90;92.20;;;;;;4956590;28;20066;-84
2023/10/11 06:42:21;;;;;;;4.47;2.33;;;17.90;92.10;;;;;;4974209;28;20077;-84
2023/10/11 06:44:57;;;;;;;4.40;2.10;;;17.90;92.10;;;;;;4956497;28;20026;-84
2023/10/11 06:47:24;;;;;;;5.32;2.60;;;17.90;92.20;;;;;;4956671;28;20619;-84
2023/10/11 06:49:54;;;;;;;4.55;2.30;;;17.90;92.20;;;;;;4955735;28;20489;-84
2023/10/11 06:52:30;;;;;;;5.15;2.40;;;17.90;92.20;;;;;;4956460;28;20034;-84
2023/10/11 06:55:18;;;;;;;4.63;2.30;;;17.90;92.20;;;;;;4956444;28;20030;-84
2023/10/11 06:57:45;;;;;;;3.95;2.00;;;17.90;92.20;;;;;;4956586;28;20402;-84
2023/10/11 07:00:21;;;;;;;4.18;2.05;;;17.90;92.20;;;;;;4956021;28;20497;-84
2023/10/11 07:02:53;;;;;;;5.03;2.30;;;18.00;92.30;;;;;;4956410;28;20031;-84
2023/10/11 07:05:20;;;;;;;4.50;2.30;;;18.00;92.20;;;;;;4956396;28;20019;-84
2023/10/11 07:07:52;;;;;;;4.25;2.03;;;18.00;92.10;;;;;;4956404;28;20027;-84
2023/10/11 07:10:32;;;;;;;5.00;2.22;;;18.00;92.00;;;;;;4956789;28;20093;-84
2023/10/11 07:13:05;;;;;;;5.13;2.58;;;18.10;92.00;;;;;;4956216;28;20030;-84
2023/10/11 07:15:44;;;;;;;4.15;2.03;;;18.10;91.90;;;;;;4956429;28;20082;-84
2023/10/11 07:18:22;;;;;;;4.50;2.38;;;18.10;92.00;;;;;;4956215;28;20031;-84
2023/10/11 07:20:48;;;;;;;5.18;2.30;;;18.10;92.00;;;;;;4956264;28;20055;-84
2023/10/11 07:23:19;;;;;;;4.32;2.20;;;18.10;92.00;;;;;;4955976;28;20023;-84
2023/10/11 07:25:47;;;;;;;4.57;2.20;;;18.10;91.90;;;;;;4975186;28;20057;-84
2023/10/11 07:28:35;;;;;;;5.75;2.55;;;18.10;91.90;;;;;;4960136;28;20026;-84
2023/10/11 07:31:03;;;;;;;4.43;1.85;;;18.10;91.90;;;;;;4977029;28;20029;-84
2023/10/11 07:33:29;;;;;;;4.53;2.10;;;18.10;91.90;;;;;;4959676;28;20403;-84
2023/10/11 07:35:55;;;;;;;4.35;2.17;;;18.10;91.90;;;;;;4977163;28;20023;-84
2023/10/11 07:38:21;;;;;;;4.60;2.20;;;18.10;91.90;;;;;;4959800;28;20038;-84
2023/10/11 07:40:46;;;;;;;4.55;2.20;;;18.10;91.90;;;;;;4977282;28;20027;-84
2023/10/11 07:43:16;;;;;;;4.13;2.20;;;18.10;91.90;;;;;;4959678;28;20027;-84
2023/10/11 07:45:47;;;;;;;5.47;2.60;;;18.20;91.90;;;;;;4959704;28;20026;-84
2023/10/11 07:48:16;;;;;;;3.92;2.13;;;18.20;91.90;;;;;;4959604;28;20031;-84
2023/10/11 07:50:42;;;;;;;4.47;2.28;;;18.10;91.90;;;;;;4959716;28;20125;-84
2023/10/11 07:53:13;;;;;;;4.80;2.10;;;18.10;91.90;;;;;;4959556;28;20486;-84
2023/10/11 07:55:40;;;;;;;3.83;1.80;;;18.20;91.90;;;;;;4959524;28;20038;-84
2023/10/11 07:58:08;;;;;;;3.63;1.98;;;18.20;91.90;;;;;;4959351;28;20424;-84
2023/10/11 08:00:41;;;;;;;3.67;1.98;;;18.20;91.90;;;;;;4959242;28;20030;-84
2023/10/11 08:03:11;;;;;;;4.60;2.10;;;18.20;91.90;;;;;;4959251;28;20035;-84
2023/10/11 08:05:45;;;;;;;5.35;2.42;;;18.20;91.90;;;;;;4976752;28;20023;-84
2023/10/11 08:08:13;;;;;;;4.07;2.00;;;18.20;91.80;;;;;;4959764;28;20493;-84
2023/10/11 08:10:44;;;;;;;3.85;2.03;;;18.30;91.80;;;;;;4959136;28;20023;-84
2023/10/11 08:13:23;;;;;;;4.80;2.30;;;18.30;91.70;;;;;;4976334;28;20015;-84
2023/10/11 08:15:57;;;;;;;4.15;2.08;;;18.30;91.60;;;;;;4959237;28;20030;-84
2023/10/11 08:18:23;;;;;;;4.38;2.10;;;18.30;91.60;;;;;;4958895;28;20421;-84
2023/10/11 08:20:48;;;;;;;4.18;2.20;;;18.40;91.60;;;;;;4959124;28;20026;-84
2023/10/11 08:23:28;;;;;;;3.85;2.00;;;18.30;91.60;;;;;;4958943;28;20074;-84
2023/10/11 08:25:54;;;;;;;5.50;2.47;;;18.40;91.60;;;;;;4959153;28;20019;-84
2023/10/11 08:28:28;;;;;;;4.20;2.22;;;18.40;91.60;;;;;;4958895;28;20034;-84
2023/10/11 08:30:57;;;;;;;4.40;2.13;;;18.40;91.60;;;;;;4959019;28;20090;-84
2023/10/11 08:33:23;;;;;;;4.25;2.25;;;18.40;91.60;;;;;;4975918;28;20154;-84
2023/10/11 08:35:53;;;;;;;5.30;2.17;;;18.40;91.60;;;;;;4958722;28;20030;-84
2023/10/11 08:38:19;;;;;;;4.43;2.10;;;18.40;91.60;;;;;;4957700;28;20027;-84
2023/10/11 08:40:47;;;;;;;3.97;2.10;;;18.50;91.60;;;;;;4958860;28;20027;-84
2023/10/11 08:43:16;;;;;;;3.95;1.95;;;18.50;91.60;;;;;;4958669;28;20511;-84
2023/10/11 08:45:49;;;;;;;4.45;2.28;;;18.50;91.60;;;;;;4958754;28;20508;-84
2023/10/11 08:48:15;;;;;;;4.57;2.40;;;18.50;91.60;;;;;;4958620;28;20034;-84
2023/10/11 08:50:51;;;;;;;4.90;2.20;;;18.50;91.60;;;;;;4975818;28;20015;-85
2023/10/11 08:53:20;;;;;;;5.20;2.30;;;18.50;91.60;;;;;;4958245;28;20736;-84
2023/10/11 08:55:49;;;;;;;4.13;2.10;;;18.50;91.60;;;;;;4958578;28;20477;-84
2023/10/11 08:58:27;;;;;;;4.50;2.20;;;18.50;91.60;;;;;;4958665;28;20081;-84
2023/10/11 09:00:58;;;;;;;4.70;2.22;;;18.50;91.60;;;;;;4958474;28;20027;-84
2023/10/11 09:03:25;;;;;;;3.85;1.90;;;18.60;91.60;;;;;;4958058;28;20417;-84
2023/10/11 09:06:00;;;;;;;3.47;1.88;;;18.60;91.60;;;;;;4958252;28;20450;-84
2023/10/11 09:08:31;;;;;;;5.07;2.35;;;18.60;91.60;;;;;;4975566;28;20054;-83
2023/10/11 09:11:05;;;;;;;4.15;2.20;;;18.60;91.50;;;;;;4958372;28;20035;-84
2023/10/11 09:13:36;;;;;;;4.35;2.20;;;18.60;91.40;;;;;;4957793;28;20489;-84
2023/10/11 09:16:08;;;;;;;4.70;2.03;;;18.70;91.40;;;;;;4975380;28;20037;-84
2023/10/11 09:18:34;;;;;;;4.30;2.03;;;18.70;91.40;;;;;;4957807;28;20073;-84
2023/10/11 09:21:09;;;;;;;4.10;2.00;;;18.70;91.40;;;;;;4958041;28;20031;-84
2023/10/11 09:23:46;;;;;;;4.20;2.15;;;18.70;91.30;;;;;;4957755;28;20023;-84
2023/10/11 09:26:13;;;;;;;3.95;2.00;;;18.80;91.40;;;;;;4975363;28;20501;-84
2023/10/11 09:28:41;;;;;;;4.60;2.30;;;18.70;91.40;;;;;;4957808;28;20444;-84
2023/10/11 09:31:10;;;;;;;4.43;2.15;;;18.70;91.40;;;;;;4975069;28;20058;-84
2023/10/11 09:33:38;;;;;;;3.55;2.13;;;18.80;91.40;;;;;;4957478;28;20081;-84
2023/10/11 09:36:06;;;;;;;4.43;1.98;;;18.80;91.40;;;;;;4957691;28;20073;-84
2023/10/11 09:38:39;;;;;;;4.07;1.88;;;18.80;91.40;;;;;;4974858;28;20029;-84
2023/10/11 09:41:08;;;;;;;3.85;2.00;;;18.80;91.40;;;;;;4957656;28;20033;-84
2023/10/11 09:43:42;;;;;;;4.22;2.10;;;18.80;91.40;;;;;;4957282;28;20026;-84
2023/10/11 09:46:11;;;;;;;4.97;2.03;;;18.80;91.50;;;;;;4957394;28;20481;-84
2023/10/11 09:48:40;;;;;;;4.22;2.00;;;18.80;91.50;;;;;;4974322;28;20780;-84
2023/10/11 09:51:08;;;;;;;4.25;1.90;;;18.80;91.50;;;;;;4957613;28;20042;-84
2023/10/11 09:53:41;;;;;;;4.25;1.90;;;18.80;91.50;;;;;;4957138;28;20405;-84
2023/10/11 09:56:20;;;;;;;3.67;2.00;;;18.80;91.40;;;;;;4957423;28;20035;-84
2023/10/11 09:58:57;;;;;;;4.65;2.20;;;18.80;91.40;;;;;;4956846;28;20057;-84
2023/10/11 10:01:32;;;;;;;4.38;2.28;;;18.80;91.70;;;;;;4957461;28;20058;-84
2023/10/11 10:04:05;;;;;;;5.03;2.20;;;18.80;91.40;;;;;;4956876;28;20038;-84
2023/10/11 10:06:30;;;;;;;4.18;2.00;;;18.90;91.40;;;;;;4957189;28;20053;-84
2023/10/11 10:09:23;;;;;;;4.88;2.30;;;18.90;91.40;;;;;;4957078;28;20462;-84
2023/10/11 10:12:09;;;;;;;4.72;2.10;;;18.90;91.30;;;;;;4957174;28;20397;-84
2023/10/11 10:14:36;;;;;;;4.07;2.00;;;19.00;91.30;;;;;;4956910;28;20033;-84
2023/10/11 10:17:12;;;;;;;4.10;2.10;;;19.00;91.20;;;;;;4974330;28;20050;-84
2023/10/11 10:19:46;;;;;;;3.45;1.95;;;19.00;91.20;;;;;;4956765;28;20146;-84
2023/10/11 10:22:27;;;;;;;4.13;2.00;;;19.00;91.10;;;;;;4956625;28;20023;-83
2023/10/11 10:24:56;;;;;;;3.90;2.08;;;19.00;91.10;;;;;;4974333;28;20015;-84
2023/10/11 10:27:33;;;;;;;4.05;1.92;;;19.00;91.10;;;;;;4956732;28;20436;-84
2023/10/11 10:30:01;;;;;;;4.50;2.38;;;19.00;91.20;;;;;;4956806;28;20032;-84
2023/10/11 10:32:27;;;;;;;3.55;1.92;;;19.00;91.20;;;;;;4956511;28;20035;-84
2023/10/11 10:35:18;;;;;;;4.47;2.10;;;19.00;91.20;;;;;;4956685;28;20481;-84
2023/10/11 10:37:50;;;;;;;5.13;2.30;;;19.00;91.20;;;;;;4956732;28;20034;-84
2023/10/11 10:40:27;;;;;;;3.83;2.03;;;19.00;91.20;;;;;;4956821;28;20033;-84
2023/10/11 10:43:19;;;;;;;3.83;2.10;;;19.00;91.30;;;;;;4973815;28;20026;-84
2023/10/11 10:45:48;;;;;;;4.30;1.92;;;19.00;91.30;;;;;;4956799;28;20097;-84
2023/10/11 10:48:24;;;;;;;3.85;2.00;;;19.00;91.40;;;;;;4956595;28;20050;-84
2023/10/11 10:51:01;;;;;;;4.90;2.20;;;19.00;91.40;;;;;;4956647;28;20429;-84
2023/10/11 10:53:42;;;;;;;3.97;2.03;;;19.00;91.40;;;;;;4956276;28;20024;-84
2023/10/11 10:56:25;;;;;;;3.88;2.03;;;19.00;91.40;;;;;;4973917;28;20014;-84
2023/10/11 10:59:08;;;;;;;11.70;3.25;;;19.00;91.40;;;;;;4956322;28;20026;-84
2023/10/11 11:01:37;;;;;;;3.80;1.75;;;19.00;91.40;;;;;;4959653;28;20547;-84
2023/10/11 11:04:07;;;;;;;4.00;1.95;;;19.00;91.40;;;;;;4977723;28;20031;-84
2023/10/11 11:06:48;;;;;;;4.03;2.00;;;19.00;91.40;;;;;;4960465;28;20034;-84
2023/10/11 11:09:15;;;;;;;4.18;2.35;;;19.00;91.40;;;;;;4977737;28;20027;-84
2023/10/11 11:11:42;;;;;;;4.75;2.40;;;19.00;91.30;;;;;;4960258;28;20078;-84
2023/10/11 11:14:15;;;;;;;4.03;1.95;;;19.10;91.30;;;;;;4977456;28;20033;-84
2023/10/11 11:16:44;;;;;;;4.53;2.17;;;19.10;91.20;;;;;;4960406;28;20038;-85
2023/10/11 11:19:17;;;;;;;2.85;1.80;;;19.10;91.20;;;;;;4977333;28;20023;-84
2023/10/11 11:21:46;;;;;;;3.30;1.88;;;19.10;91.10;;;;;;4960140;28;20034;-84
2023/10/11 11:24:27;;;;;;;3.92;2.00;;;19.10;91.10;;;;;;4959768;28;20032;-84
2023/10/11 11:26:54;;;;;;;3.45;2.00;;;19.20;91.20;;;;;;4960205;28;20027;-85
2023/10/11 11:29:33;;;;;;;3.70;1.90;;;19.10;91.10;;;;;;4977316;28;20026;-84
2023/10/11 11:32:14;;;;;;;4.55;2.25;;;19.10;91.20;;;;;;4977416;28;20580;-84
2023/10/11 11:35:02;;;;;;;3.17;1.80;;;19.10;91.20;;;;;;4959927;28;20027;-84
2023/10/11 11:37:33;;;;;;;4.75;2.25;;;19.10;91.20;;;;;;4959973;28;20042;-84
2023/10/11 11:40:19;;;;;;;4.13;2.00;;;19.10;91.20;;;;;;4961034;28;20481;-84
2023/10/11 11:42:47;;;;;;;3.70;1.90;;;19.10;91.20;;;;;;4959508;28;20269;-84
2023/10/11 11:45:17;;;;;;;4.32;2.20;;;19.10;91.30;;;;;;4959645;28;20475;-84
2023/10/11 11:47:56;;;;;;;2.92;1.70;;;19.10;91.30;;;;;;4976993;28;20401;-84
2023/10/11 11:50:26;;;;;;;4.45;2.25;;;19.10;91.20;;;;;;4959678;28;20030;-84
2023/10/11 11:52:52;;;;;;;3.83;1.98;;;19.10;91.30;;;;;;4959505;28;20404;-84
2023/10/11 11:55:22;;;;;;;4.35;2.20;;;19.10;91.30;;;;;;4959603;28;20030;-84
2023/10/11 11:57:48;;;;;;;4.43;2.08;;;19.10;91.40;;;;;;4959721;28;20340;-84
2023/10/11 12:02:48;;;;;;;4.22;2.05;;;19.10;91.40;;;;;;4976688;28;20026;-84
2023/10/11 12:05:14;;;;;;;3.83;1.80;;;19.10;91.40;;;;;;4959764;28;20051;-84
2023/10/11 12:07:40;;;;;;;4.10;1.92;;;19.10;91.40;;;;;;4976611;28;20102;-84
2023/10/11 12:10:11;;;;;;;4.10;2.17;;;19.10;91.30;;;;;;4959292;28;20115;-84
2023/10/11 12:12:37;;;;;;;4.45;2.20;;;19.10;91.30;;;;;;4958889;28;20147;-84
2023/10/11 12:15:03;;;;;;;4.15;2.10;;;19.10;91.20;;;;;;4959298;28;20089;-83
2023/10/11 12:17:29;;;;;;;3.75;1.98;;;19.20;91.50;;;;;;4959342;28;20547;-84
2023/10/11 12:19:55;;;;;;;4.63;2.20;;;19.20;91.20;;;;;;4959144;28;20035;-84
2023/10/11 12:22:22;;;;;;;4.25;2.03;;;19.10;91.20;;;;;;4976132;28;20077;-83
2023/10/11 12:24:48;;;;;;;2.67;1.80;;;19.20;91.20;;;;;;4958886;28;20503;-84
2023/10/11 12:27:13;;;;;;;4.38;2.05;;;19.10;91.20;;;;;;4958885;28;20083;-84
2023/10/11 12:29:39;;;;;;;5.03;2.13;;;19.10;91.20;;;;;;4958990;28;20023;-84
2023/10/11 12:32:06;;;;;;;3.92;2.10;;;19.10;91.20;;;;;;4958778;28;20037;-84
2023/10/11 12:34:32;;;;;;;4.90;2.03;;;19.10;91.20;;;;;;4958955;28;20543;-84
2023/10/11 12:37:00;;;;;;;3.67;1.95;;;19.10;91.20;;;;;;4976182;28;20031;-84
2023/10/11 12:39:29;;;;;;;5.25;2.10;;;19.10;91.50;;;;;;4976025;28;20026;-84
2023/10/11 12:41:56;;;;;;;4.38;2.15;;;19.10;91.30;;;;;;4958956;28;20408;-84
2023/10/11 12:44:22;;;;;;;5.70;2.15;;;19.10;91.30;;;;;;4975796;28;20019;-84
2023/10/11 12:46:49;;;;;;;4.20;2.30;;;19.10;91.30;;;;;;4958723;28;20038;-84
2023/10/11 12:49:16;;;;;;;4.40;2.30;;;19.10;91.40;;;;;;4958485;28;20033;-84
2023/10/11 12:51:44;;;;;;;4.55;2.20;;;19.10;91.40;;;;;;4958583;28;20034;-84
2023/10/11 12:54:10;;;;;;;4.55;2.30;;;19.10;91.40;;;;;;4958301;28;20041;-84
2023/10/11 12:56:37;;;;;;;3.78;1.98;;;19.10;91.40;;;;;;4958425;28;20069;-84
2023/10/11 12:59:06;;;;;;;4.13;2.13;;;19.00;91.40;;;;;;4957982;28;20027;-84
2023/10/11 13:01:40;;;;;;;4.22;2.10;;;19.00;91.40;;;;;;4958523;28;20038;-84
2023/10/11 13:04:13;;;;;;;3.88;1.90;;;19.00;91.40;;;;;;4958105;28;20022;-84
2023/10/11 13:06:39;;;;;;;4.07;2.08;;;19.00;91.40;;;;;;4958418;28;20409;-84
2023/10/11 13:09:14;;;;;;;4.53;2.00;;;19.00;91.40;;;;;;4975621;28;20023;-84
2023/10/11 13:11:46;;;;;;;4.18;1.88;;;19.00;91.40;;;;;;4975628;28;20108;-84
2023/10/11 13:14:18;;;;;;;3.63;1.98;;;19.00;91.40;;;;;;4958113;28;20031;-84
2023/10/11 13:16:48;;;;;;;3.90;2.20;;;19.10;91.40;;;;;;4975395;28;20029;-83
2023/10/11 13:19:18;;;;;;;3.13;1.73;;;19.10;91.40;;;;;;4957800;28;20035;-84
2023/10/11 13:21:47;;;;;;;3.08;1.75;;;19.10;91.40;;;;;;4975254;28;20065;-84
2023/10/11 13:24:16;;;;;;;3.72;2.00;;;19.10;91.40;;;;;;4974395;28;20036;-84
2023/10/11 13:26:46;;;;;;;4.22;2.10;;;19.00;91.40;;;;;;4957948;28;20101;-84
2023/10/11 13:29:18;;;;;;;4.03;2.00;;;19.00;91.40;;;;;;4957945;28;20027;-84
2023/10/11 13:31:54;;;;;;;3.53;1.90;;;19.00;91.40;;;;;;4957936;28;20473;-84
2023/10/11 13:34:21;;;;;;;4.60;2.15;;;19.00;91.50;;;;;;4957552;28;20579;-84
2023/10/11 13:36:47;;;;;;;4.10;1.98;;;19.00;91.50;;;;;;4957665;28;20034;-84
2023/10/11 13:39:28;;;;;;;3.97;2.05;;;19.00;91.50;;;;;;4957670;28;20440;-84
2023/10/11 13:42:03;;;;;;;4.05;2.15;;;19.00;91.50;;;;;;4957542;28;20030;-84
2023/10/11 13:44:28;;;;;;;4.10;2.17;;;19.00;91.60;;;;;;4957300;28;20393;-84
2023/10/11 13:46:55;;;;;;;3.70;1.73;;;18.90;91.60;;;;;;4957557;28;20025;-84
2023/10/11 13:49:25;;;;;;;3.83;2.10;;;18.90;91.60;;;;;;4957487;28;20027;-84
2023/10/11 13:51:52;;;;;;;3.95;2.10;;;18.90;91.60;;;;;;4957613;28;20074;-84
2023/10/11 13:54:31;;;;;;;3.25;1.88;;;18.90;91.60;;;;;;4957036;28;20058;-84
2023/10/11 13:57:10;;;;;;;4.10;2.00;;;19.00;91.70;;;;;;4957564;28;20039;-84
2023/10/11 13:59:37;;;;;;;3.72;1.98;;;18.90;91.70;;;;;;4974255;28;20371;-84
2023/10/11 14:09:56;;;;;;;3.13;1.70;;;18.90;91.70;;;;;;4974872;28;20109;-85
2023/10/11 14:12:29;;;;;;;3.20;1.80;;;18.90;91.70;;;;;;4974228;28;20022;-83
2023/10/11 14:14:55;;;;;;;4.45;2.30;;;18.90;91.60;;;;;;4957143;28;20023;-81
2023/10/11 14:17:24;;;;;;;7.57;2.20;;;18.90;91.60;;;;;;4969658;28;20059;-84
2023/10/11 14:19:51;;;;;;;5.80;2.28;;;18.90;91.60;;;;;;4964920;28;20026;-83
2023/10/11 14:22:17;;;;;;;4.38;2.05;;;18.90;91.60;;;;;;4940216;29;20067;-82
2023/10/11 14:24:43;;;;;;;7.10;2.05;;;18.90;91.60;;;;;;4937708;29;20027;-83
2023/10/11 14:27:08;;;;;;;4.03;2.00;;;18.90;91.60;;;;;;4937651;29;20379;-83
2023/10/11 14:29:35;;;;;;;4.53;2.22;;;18.90;91.70;;;;;;4937997;29;20078;-83
2023/10/11 14:32:02;;;;;;;3.80;1.95;;;18.90;91.70;;;;;;4937649;29;20516;-83
2023/10/11 14:34:30;;;;;;;6.47;2.45;;;18.90;91.70;;;;;;4937372;29;20031;-83
2023/10/11 14:36:55;;;;;;;4.43;2.30;;;18.90;91.70;;;;;;4937912;29;20034;-83
2023/10/11 14:39:22;;;;;;;4.72;2.15;;;18.80;91.70;;;;;;4937455;29;20035;-83
2023/10/11 14:41:51;;;;;;;4.53;2.10;;;18.80;91.80;;;;;;4954791;29;20020;-81
2023/10/11 14:44:17;;;;;;;4.63;2.17;;;18.80;91.80;;;;;;4954430;28;20027;-83
2023/10/11 14:46:44;;;;;;;4.82;2.20;;;18.80;91.80;;;;;;4937546;29;20023;-83
2023/10/11 14:49:11;;;;;;;7.10;2.50;;;18.80;91.80;;;;;;4954762;29;20058;-83
2023/10/11 14:51:38;;;;;;;3.80;2.00;;;18.80;91.80;;;;;;4937527;29;20043;-83
2023/10/11 14:54:04;;;;;;;3.88;2.00;;;18.80;91.80;;;;;;4937136;29;20038;-83
2023/10/11 14:56:33;;;;;;;4.13;2.05;;;18.80;91.90;;;;;;4954397;29;20027;-83
2023/10/11 14:58:58;;;;;;;4.07;2.17;;;18.80;91.90;;;;;;4937216;29;20035;-83
2023/10/11 15:01:25;;;;;;;5.35;2.30;;;18.80;91.90;;;;;;4937286;29;20031;-83
2023/10/11 15:03:51;;;;;;;4.35;2.00;;;18.80;91.90;;;;;;4954081;28;20394;-83
2023/10/11 15:06:19;;;;;;;4.53;2.08;;;18.80;91.90;;;;;;4937420;29;20026;-83
2023/10/11 15:08:45;;;;;;;4.32;2.10;;;18.80;91.90;;;;;;4937850;29;20421;-84
2023/10/11 15:11:18;;;;;;;4.05;2.15;;;18.80;91.90;;;;;;4952195;28;20027;-82
2023/10/11 15:13:44;;;;;;;5.72;2.30;;;18.80;91.90;;;;;;4937001;29;20075;-83
2023/10/11 15:16:14;;;;;;;5.15;2.22;;;18.80;91.80;;;;;;4937355;29;20031;-83
2023/10/11 15:18:41;;;;;;;5.68;2.30;;;18.80;91.80;;;;;;4954224;29;20405;-83
2023/10/11 15:21:06;;;;;;;4.38;2.20;;;18.80;91.80;;;;;;4937018;29;20570;-83
2023/10/11 15:23:32;;;;;;;4.43;2.17;;;18.80;91.70;;;;;;4954199;28;20059;-83
2023/10/11 15:26:03;;;;;;;4.55;2.30;;;18.80;91.80;;;;;;4938251;29;20078;-84
2023/10/11 15:28:31;;;;;;;4.40;2.00;;;18.80;91.80;;;;;;4937611;28;20513;-83
2023/10/11 15:30:58;;;;;;;6.43;1.98;;;18.80;91.80;;;;;;4956335;28;20030;-83
2023/10/11 15:33:25;;;;;;;4.35;1.90;;;18.80;91.80;;;;;;4956058;28;20034;-84